Seastreak Highlands — WDE4031 — position and weather

sailwx.info

Track history (hours):
 
Tides and Currents Weather Stations Pressure Air Temp Water Temp Dewpoint Dewpoint Depression Visibility Wind Speed Wind Dir Waves Ship Positions

Seastreak Highlands

Owner: Seastreak llc, atlantic highlands, NJ. More information available from US FCC via Universal Licensing System and Coast Guard Vessel Documentation Center.

Last reported at 2015-Mar-28 01:21 UTC. Time now 2015-Mar-29 19:40 UTC.
Position N 40°25' W 074°02'.

Length 44 m; draft 2 m.

Type: High speed craft. MMSI: 367347670.

Date/timePositionNaut miles runAvg speedWind from/ knotsBaromVisibWave heightAir tempDewpointWater temp
2015-Mar-28 01:21N 40°25' W 074°02'2 2.1
2015-Mar-28 00:29N 40°25' W 073°60'1920.2
2015-Mar-27 23:33N 40°43' W 073°58'1717.0
2015-Mar-27 22:33N 40°26' W 074°01'1514.9
2015-Mar-27 21:34N 40°41' W 074°01'1 0.9
2015-Mar-27 20:34N 40°40' W 074°01'1313.0
2015-Mar-27 19:34N 40°28' W 074°01'1717.2
2015-Mar-27 18:33N 40°45' W 073°58'0 0.0
2015-Mar-27 17:33N 40°45' W 073°58'0 0.0
2015-Mar-27 16:33N 40°45' W 073°58'0 0.0
2015-Mar-27 15:33N 40°45' W 073°58'0 0.0
2015-Mar-27 14:33N 40°45' W 073°58'3 2.9
2015-Mar-27 13:33N 40°42' W 074°00'8 7.5
2015-Mar-27 12:26N 40°34' W 074°02'7 7.9
2015-Mar-27 11:33N 40°41' W 074°01'15 1.4
2015-Mar-27 00:27N 40°25' W 074°01'1820.1
2015-Mar-26 23:33N 40°43' W 073°58'1711.2
2015-Mar-26 22:04N 40°27' W 074°02'1530.3
2015-Mar-26 21:33N 40°42' W 074°01'2 1.9
2015-Mar-26 20:33N 40°40' W 074°02'1211.3
2015-Mar-26 19:30N 40°28' W 074°01'1717.7
2015-Mar-26 18:33N 40°45' W 073°58'0 0.0
2015-Mar-26 17:33N 40°45' W 073°58'0 0.0
2015-Mar-26 16:33N 40°45' W 073°58'0 0.0
2015-Mar-26 15:33N 40°45' W 073°58'0 0.0
2015-Mar-26 14:33N 40°45' W 073°58'3 3.0
2015-Mar-26 13:34N 40°42' W 074°00'1110.8
2015-Mar-26 12:30N 40°31' W 074°02'1010.9
2015-Mar-26 11:34N 40°41' W 074°01'10 0.8
2015-Mar-26 00:08N 40°32' W 074°02'1221.6
2015-Mar-25 23:34N 40°44' W 073°58'1918.5
2015-Mar-25 22:32N 40°25' W 073°60'1717.3
2015-Mar-25 21:33N 40°41' W 074°01'3 2.7
2015-Mar-25 20:34N 40°39' W 074°02'1211.7
2015-Mar-25 19:34N 40°27' W 074°01'1717.3
2015-Mar-25 18:33N 40°45' W 073°58'0 0.0
2015-Mar-25 17:33N 40°45' W 073°58'0 0.0
2015-Mar-25 16:33N 40°45' W 073°58'0 0.0
2015-Mar-25 15:26N 40°45' W 073°58'0 0.0
2015-Mar-25 14:33N 40°45' W 073°58'4 4.1
2015-Mar-25 13:34N 40°41' W 074°01'7 6.9
2015-Mar-25 12:33N 40°34' W 074°02'5 5.2
2015-Mar-25 11:33N 40°39' W 074°02'8 0.7
2015-Mar-25 00:13N 40°31' W 074°02'1320.2
2015-Mar-24 23:33N 40°44' W 073°58'3 1.6
2015-Mar-24 21:34N 40°42' W 074°01'2 2.2
2015-Mar-24 20:34N 40°40' W 074°01'6 5.1
2015-Mar-24 19:20N 40°33' W 074°02'1214.9
2015-Mar-24 18:33N 40°45' W 073°58'0 0.0
2015-Mar-24 17:33N 40°45' W 073°58'0 0.0
2015-Mar-24 16:33N 40°45' W 073°58'0 0.0
2015-Mar-24 15:32N 40°45' W 073°58'0 0.0
2015-Mar-24 14:33N 40°45' W 073°58'3 2.9
2015-Mar-24 13:34N 40°42' W 074°00'9 8.9
2015-Mar-24 12:32N 40°33' W 074°02'6 5.6
2015-Mar-24 11:33N 40°39' W 074°02'1411.9
2015-Mar-24 10:22N 40°25' W 073°60'8 0.8
2015-Mar-24 00:11N 40°32' W 074°02'1319.4
2015-Mar-23 23:32N 40°45' W 073°58'3 1.7
2015-Mar-23 21:33N 40°42' W 074°00'8 7.9
2015-Mar-23 20:33N 40°34' W 074°02'1 1.2
2015-Mar-23 19:23N 40°32' W 074°02'1215.1
2015-Mar-23 18:34N 40°45' W 073°58'0 0.0
2015-Mar-23 17:34N 40°45' W 073°58'0 0.0
2015-Mar-23 16:33N 40°45' W 073°58'0 0.0
2015-Mar-23 15:33N 40°45' W 073°58'0 0.0
2015-Mar-23 14:32N 40°45' W 073°58'3 3.0
2015-Mar-23 13:34N 40°42' W 074°00'10 9.7
2015-Mar-23 12:32N 40°32' W 074°02'7 7.3
2015-Mar-23 11:33N 40°39' W 074°02'1513.3
2015-Mar-23 10:27N 40°25' W 073°60'2 2.0
2015-Mar-23 09:33N 40°25' W 074°02'0 0.0
2015-Mar-21 18:32N 40°25' W 074°02'11 0.6
2015-Mar-20 23:15N 40°36' W 074°03'710.0
2015-Mar-20 22:34N 40°42' W 073°59'11 7.5
2015-Mar-20 21:09N 40°32' W 074°02'1017.2
2015-Mar-20 20:34N 40°42' W 074°00'5 2.5
2015-Mar-20 18:26N 40°47' W 073°57'0 0.0
2015-Mar-20 17:08N 40°47' W 073°57'0 0.0
2015-Mar-20 16:12N 40°47' W 073°57'0 0.0
2015-Mar-20 15:18N 40°47' W 073°57'0 0.0
2015-Mar-20 14:22N 40°47' W 073°57'0 0.0
2015-Mar-20 13:24N 40°47' W 073°57'8 9.1
2015-Mar-20 12:34N 40°40' W 074°02'7 6.8
2015-Mar-20 11:27N 40°33' W 074°03'7 8.1
2015-Mar-20 10:34N 40°40' W 074°02'6 0.5
2015-Mar-19 23:10N 40°34' W 074°02'1117.4
2015-Mar-19 22:33N 40°44' W 073°58'1918.2
2015-Mar-19 21:30N 40°25' W 074°01'1717.9
2015-Mar-19 20:34N 40°42' W 073°60'5 1.7
2015-Mar-19 17:31N 40°47' W 073°57'0 0.0
2015-Mar-19 14:20N 40°47' W 073°57'1 0.9
2015-Mar-19 13:13N 40°46' W 073°57'812.2
2015-Mar-19 12:34N 40°39' W 074°02'5 4.9
2015-Mar-19 11:31N 40°34' W 074°02'6 6.1
2015-Mar-19 10:34N 40°39' W 074°02'14 1.4
2015-Mar-19 00:21N 40°25' W 074°02'1923.8
2015-Mar-18 23:33N 40°44' W 073°58'1915.1
2015-Mar-18 22:20N 40°25' W 074°01'1621.3
2015-Mar-18 21:34N 40°42' W 074°01'0 0.4
2015-Mar-18 20:33N 40°41' W 074°00'1211.1
2015-Mar-18 19:27N 40°29' W 074°02'1617.4
2015-Mar-18 18:33N 40°45' W 073°58'0 0.0
2015-Mar-18 17:33N 40°45' W 073°58'0 0.0
2015-Mar-18 16:33N 40°45' W 073°58'0 0.0
2015-Mar-18 15:33N 40°45' W 073°58'0 0.0
2015-Mar-18 14:33N 40°45' W 073°58'0 0.0
2015-Mar-18 13:33N 40°45' W 073°58'7 7.0
2015-Mar-18 12:34N 40°38' W 074°02'5 5.1
2015-Mar-18 11:30N 40°33' W 074°02'4 4.2
2015-Mar-18 10:33N 40°37' W 074°03'  
Track history (hours):
 
Tides and Currents Weather Stations Pressure Air Temp Water Temp Dewpoint Dewpoint Depression Visibility Wind Speed Wind Dir Waves Ship Positions

Seastreak Highlands

Owner: Seastreak llc, atlantic highlands, NJ. More information available from US FCC via Universal Licensing System and Coast Guard Vessel Documentation Center.

Last reported at 2015-Mar-28 01:21 UTC. Time now 2015-Mar-29 19:40 UTC.
Position N 40°25' W 074°02'.

Length 44 m; draft 2 m.

Type: High speed craft. MMSI: 367347670.

Date/timePositionNaut miles runAvg speedWind from/ knotsBaromVisibWave heightAir tempDewpointWater temp
2015-Mar-28 01:21N 40°25' W 074°02'2 2.1
2015-Mar-28 00:29N 40°25' W 073°60'1920.2
2015-Mar-27 23:33N 40°43' W 073°58'1717.0
2015-Mar-27 22:33N 40°26' W 074°01'1514.9
2015-Mar-27 21:34N 40°41' W 074°01'1 0.9
2015-Mar-27 20:34N 40°40' W 074°01'1313.0
2015-Mar-27 19:34N 40°28' W 074°01'1717.2
2015-Mar-27 18:33N 40°45' W 073°58'0 0.0
2015-Mar-27 17:33N 40°45' W 073°58'0 0.0
2015-Mar-27 16:33N 40°45' W 073°58'0 0.0
2015-Mar-27 15:33N 40°45' W 073°58'0 0.0
2015-Mar-27 14:33N 40°45' W 073°58'3 2.9
2015-Mar-27 13:33N 40°42' W 074°00'8 7.5
2015-Mar-27 12:26N 40°34' W 074°02'7 7.9
2015-Mar-27 11:33N 40°41' W 074°01'15 1.4
2015-Mar-27 00:27N 40°25' W 074°01'1820.1
2015-Mar-26 23:33N 40°43' W 073°58'1711.2
2015-Mar-26 22:04N 40°27' W 074°02'1530.3
2015-Mar-26 21:33N 40°42' W 074°01'2 1.9
2015-Mar-26 20:33N 40°40' W 074°02'1211.3
2015-Mar-26 19:30N 40°28' W 074°01'1717.7
2015-Mar-26 18:33N 40°45' W 073°58'0 0.0
2015-Mar-26 17:33N 40°45' W 073°58'0 0.0
2015-Mar-26 16:33N 40°45' W 073°58'0 0.0
2015-Mar-26 15:33N 40°45' W 073°58'0 0.0
2015-Mar-26 14:33N 40°45' W 073°58'3 3.0
2015-Mar-26 13:34N 40°42' W 074°00'1110.8
2015-Mar-26 12:30N 40°31' W 074°02'1010.9
2015-Mar-26 11:34N 40°41' W 074°01'10 0.8
2015-Mar-26 00:08N 40°32' W 074°02'1221.6
2015-Mar-25 23:34N 40°44' W 073°58'1918.5
2015-Mar-25 22:32N 40°25' W 073°60'1717.3
2015-Mar-25 21:33N 40°41' W 074°01'3 2.7
2015-Mar-25 20:34N 40°39' W 074°02'1211.7
2015-Mar-25 19:34N 40°27' W 074°01'1717.3
2015-Mar-25 18:33N 40°45' W 073°58'0 0.0
2015-Mar-25 17:33N 40°45' W 073°58'0 0.0
2015-Mar-25 16:33N 40°45' W 073°58'0 0.0
2015-Mar-25 15:26N 40°45' W 073°58'0 0.0
2015-Mar-25 14:33N 40°45' W 073°58'4 4.1
2015-Mar-25 13:34N 40°41' W 074°01'7 6.9
2015-Mar-25 12:33N 40°34' W 074°02'5 5.2
2015-Mar-25 11:33N 40°39' W 074°02'8 0.7
2015-Mar-25 00:13N 40°31' W 074°02'1320.2
2015-Mar-24 23:33N 40°44' W 073°58'3 1.6
2015-Mar-24 21:34N 40°42' W 074°01'2 2.2
2015-Mar-24 20:34N 40°40' W 074°01'6 5.1
2015-Mar-24 19:20N 40°33' W 074°02'1214.9
2015-Mar-24 18:33N 40°45' W 073°58'0 0.0
2015-Mar-24 17:33N 40°45' W 073°58'0 0.0
2015-Mar-24 16:33N 40°45' W 073°58'0 0.0
2015-Mar-24 15:32N 40°45' W 073°58'0 0.0
2015-Mar-24 14:33N 40°45' W 073°58'3 2.9
2015-Mar-24 13:34N 40°42' W 074°00'9 8.9
2015-Mar-24 12:32N 40°33' W 074°02'6 5.6
2015-Mar-24 11:33N 40°39' W 074°02'1411.9
2015-Mar-24 10:22N 40°25' W 073°60'8 0.8
2015-Mar-24 00:11N 40°32' W 074°02'1319.4
2015-Mar-23 23:32N 40°45' W 073°58'3 1.7
2015-Mar-23 21:33N 40°42' W 074°00'8 7.9
2015-Mar-23 20:33N 40°34' W 074°02'1 1.2
2015-Mar-23 19:23N 40°32' W 074°02'1215.1
2015-Mar-23 18:34N 40°45' W 073°58'0 0.0
2015-Mar-23 17:34N 40°45' W 073°58'0 0.0
2015-Mar-23 16:33N 40°45' W 073°58'0 0.0
2015-Mar-23 15:33N 40°45' W 073°58'0 0.0
2015-Mar-23 14:32N 40°45' W 073°58'3 3.0
2015-Mar-23 13:34N 40°42' W 074°00'10 9.7
2015-Mar-23 12:32N 40°32' W 074°02'7 7.3
2015-Mar-23 11:33N 40°39' W 074°02'1513.3
2015-Mar-23 10:27N 40°25' W 073°60'2 2.0
2015-Mar-23 09:33N 40°25' W 074°02'0 0.0
2015-Mar-21 18:32N 40°25' W 074°02'11 0.6
2015-Mar-20 23:15N 40°36' W 074°03'710.0
2015-Mar-20 22:34N 40°42' W 073°59'11 7.5
2015-Mar-20 21:09N 40°32' W 074°02'1017.2
2015-Mar-20 20:34N 40°42' W 074°00'5 2.5
2015-Mar-20 18:26N 40°47' W 073°57'0 0.0
2015-Mar-20 17:08N 40°47' W 073°57'0 0.0
2015-Mar-20 16:12N 40°47' W 073°57'0 0.0
2015-Mar-20 15:18N 40°47' W 073°57'0 0.0
2015-Mar-20 14:22N 40°47' W 073°57'0 0.0
2015-Mar-20 13:24N 40°47' W 073°57'8 9.1
2015-Mar-20 12:34N 40°40' W 074°02'7 6.8
2015-Mar-20 11:27N 40°33' W 074°03'7 8.1
2015-Mar-20 10:34N 40°40' W 074°02'6 0.5
2015-Mar-19 23:10N 40°34' W 074°02'1117.4
2015-Mar-19 22:33N 40°44' W 073°58'1918.2
2015-Mar-19 21:30N 40°25' W 074°01'1717.9
2015-Mar-19 20:34N 40°42' W 073°60'5 1.7
2015-Mar-19 17:31N 40°47' W 073°57'0 0.0
2015-Mar-19 14:20N 40°47' W 073°57'1 0.9
2015-Mar-19 13:13N 40°46' W 073°57'812.2
2015-Mar-19 12:34N 40°39' W 074°02'5 4.9
2015-Mar-19 11:31N 40°34' W 074°02'6 6.1
2015-Mar-19 10:34N 40°39' W 074°02'14 1.4
2015-Mar-19 00:21N 40°25' W 074°02'1923.8
2015-Mar-18 23:33N 40°44' W 073°58'1915.1
2015-Mar-18 22:20N 40°25' W 074°01'1621.3
2015-Mar-18 21:34N 40°42' W 074°01'0 0.4
2015-Mar-18 20:33N 40°41' W 074°00'1211.1
2015-Mar-18 19:27N 40°29' W 074°02'1617.4
2015-Mar-18 18:33N 40°45' W 073°58'0 0.0
2015-Mar-18 17:33N 40°45' W 073°58'0 0.0
2015-Mar-18 16:33N 40°45' W 073°58'0 0.0
2015-Mar-18 15:33N 40°45' W 073°58'0 0.0
2015-Mar-18 14:33N 40°45' W 073°58'0 0.0
2015-Mar-18 13:33N 40°45' W 073°58'7 7.0
2015-Mar-18 12:34N 40°38' W 074°02'5 5.1
2015-Mar-18 11:30N 40°33' W 074°02'4 4.2
2015-Mar-18 10:33N 40°37' W 074°03'  

Dump ship's entire track history